Time;durP1;ratioP1;P1;durP2;ratioP2;P2;SDS_P1;SDS_P2;PMS_P1;PMS_P2;Temp;Humidity;BMP_temperature;BMP_pressure;BME280_temperature;BME280_humidity;BME280_pressure;Samples;Min_cycle;Max_cycle;Signal;HPM_P1;HPM_P2
2023/04/22 00:00:58;;;;;;;10.45;6.32;;;12.50;99.90;;;;;;4844391;29;20057;-84
2023/04/22 00:03:25;;;;;;;10.43;6.30;;;12.50;99.90;;;;;;4844606;29;20049;-84
2023/04/22 00:05:53;;;;;;;9.85;6.57;;;12.40;99.90;;;;;;4859721;29;20186;-84
2023/04/22 00:08:20;;;;;;;12.48;6.22;;;12.30;99.90;;;;;;4860750;29;20037;-84
2023/04/22 00:10:46;;;;;;;11.32;7.18;;;12.30;99.90;;;;;;4874693;29;20049;-83
2023/04/22 00:13:13;;;;;;;24.25;7.38;;;12.20;99.90;;;;;;4844565;29;20053;-84
2023/04/22 00:15:40;;;;;;;12.07;7.65;;;12.20;99.90;;;;;;4859502;29;20112;-84
2023/04/22 00:18:12;;;;;;;12.25;7.40;;;12.10;99.90;;;;;;4844410;29;20048;-84
2023/04/22 00:20:41;;;;;;;10.18;7.18;;;12.10;99.90;;;;;;4844210;29;20124;-84
2023/04/22 00:23:08;;;;;;;12.38;7.28;;;12.10;99.90;;;;;;4844550;29;20048;-84
2023/04/22 00:25:35;;;;;;;13.70;6.80;;;12.10;99.90;;;;;;4843845;29;20042;-84
2023/04/22 00:28:02;;;;;;;12.30;6.60;;;12.00;99.90;;;;;;4843796;29;20045;-84
2023/04/22 00:30:29;;;;;;;11.40;7.22;;;11.90;99.90;;;;;;4843661;29;20065;-84
2023/04/22 00:32:55;;;;;;;10.68;6.43;;;11.90;99.90;;;;;;4844014;29;20052;-84
2023/04/22 00:35:22;;;;;;;12.80;7.00;;;11.80;99.90;;;;;;4859001;29;20046;-84
2023/04/22 00:37:49;;;;;;;10.50;6.72;;;11.80;99.90;;;;;;4858961;29;20145;-84
2023/04/22 00:40:16;;;;;;;10.43;6.60;;;11.70;99.90;;;;;;4846820;29;20502;-84
2023/04/22 00:42:43;;;;;;;10.77;6.43;;;11.60;99.90;;;;;;4862245;29;20129;-84
2023/04/22 00:45:11;;;;;;;10.52;6.93;;;11.50;99.90;;;;;;4862179;29;20052;-83
2023/04/22 00:47:38;;;;;;;13.38;7.43;;;11.50;99.90;;;;;;4876807;29;20076;-83
2023/04/22 00:50:05;;;;;;;9.63;7.03;;;11.40;99.90;;;;;;4873895;29;20069;-84
2023/04/22 00:52:34;;;;;;;10.18;6.75;;;11.30;99.90;;;;;;4858266;29;20081;-83
2023/04/22 00:55:01;;;;;;;10.98;6.90;;;11.30;99.90;;;;;;4843773;29;20503;-83
2023/04/22 00:57:29;;;;;;;9.75;6.47;;;11.30;99.90;;;;;;4876978;29;20097;-84
2023/04/22 00:59:56;;;;;;;10.27;6.82;;;11.30;99.90;;;;;;4862226;29;20193;-84
2023/04/22 01:02:23;;;;;;;11.32;6.78;;;11.30;99.90;;;;;;4876985;29;20128;-84
2023/04/22 01:04:53;;;;;;;11.77;6.72;;;11.30;99.90;;;;;;4877304;29;20045;-84
2023/04/22 01:07:20;;;;;;;9.73;6.75;;;11.30;99.90;;;;;;4877608;29;20046;-84
2023/04/22 01:09:47;;;;;;;12.05;6.47;;;11.40;99.90;;;;;;4861887;29;20057;-84
2023/04/22 01:12:14;;;;;;;11.15;7.05;;;11.30;99.90;;;;;;4861853;29;20046;-84
2023/04/22 01:14:41;;;;;;;11.77;7.28;;;11.30;99.90;;;;;;4861807;29;20526;-84
2023/04/22 01:17:10;;;;;;;9.48;6.82;;;11.30;99.90;;;;;;4876541;29;20046;-84
2023/04/22 01:19:37;;;;;;;11.90;6.97;;;11.30;99.90;;;;;;4876982;29;20050;-84
2023/04/22 01:22:06;;;;;;;11.13;6.53;;;11.30;99.90;;;;;;4861900;29;20041;-84
2023/04/22 01:24:33;;;;;;;13.15;6.72;;;11.30;99.90;;;;;;4891862;29;20431;-84
2023/04/22 01:27:00;;;;;;;13.25;7.50;;;11.30;99.90;;;;;;4861723;29;20034;-84
2023/04/22 01:29:27;;;;;;;9.77;6.93;;;11.20;99.90;;;;;;4873418;29;20038;-84
2023/04/22 01:31:54;;;;;;;10.82;7.10;;;11.20;99.90;;;;;;4858396;29;20042;-84
2023/04/22 01:34:22;;;;;;;11.13;7.18;;;11.20;99.90;;;;;;4858279;29;20408;-84
2023/04/22 01:36:49;;;;;;;12.70;7.47;;;11.20;99.90;;;;;;4873267;29;20058;-84
2023/04/22 01:39:17;;;;;;;11.38;7.32;;;11.20;99.90;;;;;;4876369;29;20098;-84
2023/04/22 01:41:44;;;;;;;10.85;7.30;;;11.20;99.90;;;;;;4876570;29;20053;-84
2023/04/22 01:44:10;;;;;;;14.13;7.20;;;11.20;99.90;;;;;;4861371;29;20109;-84
2023/04/22 01:46:37;;;;;;;9.93;6.88;;;11.20;99.90;;;;;;4874981;29;20052;-84
2023/04/22 01:49:04;;;;;;;10.82;7.15;;;11.10;99.90;;;;;;4879872;29;20037;-83
2023/04/22 01:51:31;;;;;;;10.40;7.00;;;11.10;99.90;;;;;;4910745;29;20889;-84
2023/04/22 01:53:58;;;;;;;12.77;7.57;;;11.00;99.90;;;;;;4879863;29;20041;-83
2023/04/22 01:56:24;;;;;;;12.80;7.80;;;11.10;99.90;;;;;;4879820;29;20405;-84
2023/04/22 01:58:51;;;;;;;10.00;7.05;;;10.90;99.90;;;;;;4895073;29;20057;-83
2023/04/22 02:01:18;;;;;;;11.82;7.15;;;11.00;99.90;;;;;;4864369;29;20120;-84
2023/04/22 02:03:44;;;;;;;9.75;7.05;;;10.90;99.90;;;;;;4879579;29;20041;-83
2023/04/22 02:06:11;;;;;;;12.82;7.40;;;10.80;99.90;;;;;;4897871;29;20049;-84
2023/04/22 02:08:38;;;;;;;10.43;7.32;;;10.70;99.90;;;;;;4867043;29;20127;-84
2023/04/22 02:11:05;;;;;;;9.27;7.35;;;10.70;99.90;;;;;;4879890;29;20049;-84
2023/04/22 02:13:39;;;;;;;13.65;7.47;;;10.60;99.90;;;;;;4880011;29;20053;-83
2023/04/22 02:16:06;;;;;;;10.27;7.67;;;10.50;99.90;;;;;;4864589;29;20414;-83
2023/04/22 02:18:33;;;;;;;11.85;7.57;;;10.40;99.90;;;;;;4864468;29;20053;-83
2023/04/22 02:21:00;;;;;;;11.30;7.82;;;10.30;99.90;;;;;;4864403;29;20052;-83
2023/04/22 02:23:27;;;;;;;13.00;8.15;;;10.30;99.90;;;;;;4848981;29;20037;-83
2023/04/22 02:25:54;;;;;;;13.30;7.55;;;10.20;99.90;;;;;;4879602;29;20063;-84
2023/04/22 02:28:21;;;;;;;12.50;8.07;;;10.20;99.90;;;;;;4879741;29;20502;-84
2023/04/22 02:30:48;;;;;;;9.63;7.18;;;10.10;99.90;;;;;;4861261;29;20102;-84
2023/04/22 02:33:15;;;;;;;15.38;8.50;;;10.00;99.90;;;;;;4861138;29;20065;-84
2023/04/22 02:35:41;;;;;;;11.80;8.52;;;9.90;99.90;;;;;;4860840;29;20624;-83
2023/04/22 02:38:09;;;;;;;10.43;7.57;;;9.90;99.90;;;;;;4846175;29;20081;-84
2023/04/22 02:40:36;;;;;;;13.05;8.75;;;9.80;99.90;;;;;;4860741;29;20128;-84
2023/04/22 02:43:03;;;;;;;12.77;7.78;;;9.80;99.90;;;;;;4846321;29;20044;-84
2023/04/22 02:45:30;;;;;;;16.17;8.65;;;9.70;99.90;;;;;;4846080;29;20057;-84
2023/04/22 02:47:56;;;;;;;14.95;8.70;;;9.70;99.90;;;;;;4845597;29;20045;-84
2023/04/22 02:50:23;;;;;;;14.68;8.55;;;9.60;99.90;;;;;;4860928;29;20081;-83
2023/04/22 02:52:50;;;;;;;11.60;7.97;;;9.50;99.90;;;;;;4860756;29;20050;-84
2023/04/22 02:55:16;;;;;;;11.18;8.05;;;9.50;99.90;;;;;;4846049;29;20057;-83
2023/04/22 02:57:43;;;;;;;14.35;8.27;;;9.50;99.90;;;;;;4860535;29;20041;-83
2023/04/22 03:00:10;;;;;;;11.60;7.68;;;9.40;99.90;;;;;;4845453;29;20061;-84
2023/04/22 03:02:37;;;;;;;11.43;8.65;;;9.40;99.90;;;;;;4873757;29;20495;-84
2023/04/22 03:05:04;;;;;;;15.73;9.75;;;9.30;99.90;;;;;;4860547;29;20038;-84
2023/04/22 03:07:31;;;;;;;12.88;9.38;;;9.20;99.90;;;;;;4876126;29;20054;-84
2023/04/22 03:09:57;;;;;;;16.05;9.23;;;9.20;99.90;;;;;;4830317;29;20050;-84
2023/04/22 03:12:24;;;;;;;16.38;9.32;;;9.10;99.90;;;;;;4860888;29;20053;-84
2023/04/22 03:14:51;;;;;;;13.90;9.18;;;9.10;99.90;;;;;;4845304;29;20046;-84
2023/04/22 03:17:18;;;;;;;12.88;9.00;;;9.00;99.90;;;;;;4860269;29;20050;-84
2023/04/22 03:19:46;;;;;;;14.20;9.20;;;9.00;99.90;;;;;;4845145;29;20057;-84
2023/04/22 03:22:13;;;;;;;14.75;9.20;;;8.90;99.90;;;;;;4845362;29;20049;-84
2023/04/22 03:24:39;;;;;;;16.08;9.55;;;8.90;99.90;;;;;;4878380;29;20046;-83
2023/04/22 03:27:06;;;;;;;15.48;9.25;;;8.90;99.90;;;;;;4863380;29;20523;-84
2023/04/22 03:29:33;;;;;;;13.85;9.70;;;8.80;99.90;;;;;;4863554;29;20120;-84
2023/04/22 03:32:00;;;;;;;16.52;9.90;;;8.80;99.90;;;;;;4848087;29;20041;-84
2023/04/22 03:34:30;;;;;;;19.02;9.45;;;8.70;99.90;;;;;;4878756;29;20048;-84
2023/04/22 03:36:56;;;;;;;12.77;9.68;;;8.70;99.90;;;;;;4863159;29;20099;-84
2023/04/22 03:39:23;;;;;;;15.10;9.95;;;8.60;99.90;;;;;;4863302;29;20546;-84
2023/04/22 03:41:49;;;;;;;13.85;9.93;;;8.60;99.90;;;;;;4863046;29;20045;-84
2023/04/22 03:44:16;;;;;;;14.52;8.98;;;8.60;99.90;;;;;;4863211;29;20448;-84
2023/04/22 03:46:43;;;;;;;14.73;10.55;;;8.60;99.90;;;;;;4859928;29;20046;-84
2023/04/22 03:49:11;;;;;;;15.70;9.93;;;8.50;99.90;;;;;;4844662;29;20046;-84
2023/04/22 03:51:37;;;;;;;14.30;10.27;;;8.50;99.90;;;;;;4859966;29;20156;-84
2023/04/22 03:54:04;;;;;;;16.77;9.43;;;8.50;99.90;;;;;;4844894;29;20128;-84
2023/04/22 03:56:32;;;;;;;16.77;10.52;;;8.50;99.90;;;;;;4859685;29;20046;-84
2023/04/22 03:58:59;;;;;;;14.95;9.15;;;8.50;99.90;;;;;;4844587;29;20600;-84
2023/04/22 04:01:26;;;;;;;15.20;10.25;;;8.50;99.90;;;;;;4844142;29;20065;-84
2023/04/22 04:03:53;;;;;;;16.00;9.57;;;8.50;99.90;;;;;;4844247;29;20048;-84
2023/04/22 04:06:19;;;;;;;18.05;10.05;;;8.40;99.90;;;;;;4844113;29;20050;-84
2023/04/22 04:08:46;;;;;;;16.33;9.90;;;8.50;99.90;;;;;;4844075;29;20053;-84
2023/04/22 04:11:13;;;;;;;15.40;9.93;;;8.50;99.90;;;;;;4843889;29;20054;-84
2023/04/22 04:13:39;;;;;;;12.63;9.52;;;8.50;99.90;;;;;;4844356;29;20053;-84
2023/04/22 04:16:06;;;;;;;16.08;9.90;;;8.50;99.90;;;;;;4844069;29;20053;-84
2023/04/22 04:18:33;;;;;;;12.02;9.10;;;8.50;99.90;;;;;;4859579;29;20168;-83
2023/04/22 04:20:59;;;;;;;14.07;9.32;;;8.50;99.90;;;;;;4843969;29;20597;-84
2023/04/22 04:23:26;;;;;;;13.30;9.00;;;8.50;99.90;;;;;;4843673;29;20061;-84
2023/04/22 04:25:54;;;;;;;15.00;9.25;;;8.60;99.90;;;;;;4859227;29;20049;-84
2023/04/22 04:28:21;;;;;;;13.77;9.93;;;8.60;99.90;;;;;;4854969;29;20045;-84
2023/04/22 04:30:47;;;;;;;17.90;9.40;;;8.60;99.90;;;;;;4859234;29;20041;-84
2023/04/22 04:33:15;;;;;;;12.95;9.48;;;8.60;99.90;;;;;;4859345;29;20437;-84
2023/04/22 04:35:43;;;;;;;14.05;9.75;;;8.60;99.90;;;;;;4874447;29;20041;-84
2023/04/22 04:38:11;;;;;;;14.68;9.73;;;8.70;99.90;;;;;;4862168;29;20049;-84
2023/04/22 04:40:38;;;;;;;13.45;8.68;;;8.70;99.90;;;;;;4862492;29;20649;-84
2023/04/22 04:43:07;;;;;;;13.90;9.23;;;8.70;99.90;;;;;;4862235;29;20128;-84
2023/04/22 04:45:37;;;;;;;15.50;9.65;;;8.80;99.90;;;;;;4862343;29;20101;-84
2023/04/22 04:48:08;;;;;;;17.33;9.90;;;8.80;99.90;;;;;;4862641;29;20156;-84
2023/04/22 04:50:37;;;;;;;12.98;9.55;;;8.80;99.90;;;;;;4859297;29;20042;-84
2023/04/22 04:53:05;;;;;;;12.77;9.18;;;8.80;99.90;;;;;;4843574;29;20447;-84
2023/04/22 04:55:32;;;;;;;13.48;9.90;;;8.80;99.90;;;;;;4844301;29;20053;-84
2023/04/22 04:57:59;;;;;;;15.50;8.95;;;8.80;99.90;;;;;;4873859;29;20050;-83
2023/04/22 05:00:26;;;;;;;19.85;9.27;;;8.80;99.90;;;;;;4858235;29;20061;-84
2023/04/22 05:02:53;;;;;;;14.15;9.52;;;8.80;99.90;;;;;;4873720;29;20412;-84
2023/04/22 05:05:19;;;;;;;11.82;9.23;;;8.90;99.90;;;;;;4873544;29;20521;-84
2023/04/22 05:07:46;;;;;;;13.30;9.35;;;8.90;99.90;;;;;;4873828;29;20073;-84
2023/04/22 05:10:13;;;;;;;14.07;10.05;;;8.80;99.90;;;;;;4873744;29;20456;-84
2023/04/22 05:12:40;;;;;;;13.40;8.95;;;8.90;99.90;;;;;;4873649;29;20072;-84
2023/04/22 05:15:07;;;;;;;13.05;8.95;;;8.80;99.90;;;;;;4858375;29;20049;-84
2023/04/22 05:17:34;;;;;;;15.60;9.55;;;8.80;99.90;;;;;;4843965;29;20041;-84
2023/04/22 05:20:01;;;;;;;13.10;9.05;;;8.90;99.90;;;;;;4873221;29;20053;-84
2023/04/22 05:22:27;;;;;;;13.90;9.30;;;8.90;99.90;;;;;;4858535;29;20049;-84
2023/04/22 05:24:54;;;;;;;16.65;9.93;;;8.90;99.90;;;;;;4858574;29;20038;-84
2023/04/22 05:27:21;;;;;;;13.68;9.13;;;9.00;99.90;;;;;;4873295;29;20050;-83
2023/04/22 05:29:48;;;;;;;13.60;9.95;;;9.00;99.90;;;;;;4858348;29;20144;-83
2023/04/22 05:32:14;;;;;;;14.80;9.55;;;9.10;99.90;;;;;;4876565;29;20479;-84
2023/04/22 05:34:41;;;;;;;17.48;10.23;;;9.20;99.90;;;;;;4873381;29;20054;-84
2023/04/22 05:37:09;;;;;;;17.45;9.93;;;9.20;99.90;;;;;;4843082;29;20477;-84
2023/04/22 05:39:36;;;;;;;13.38;9.90;;;9.30;99.90;;;;;;4845677;29;20120;-84
2023/04/22 05:42:03;;;;;;;13.13;9.43;;;9.40;99.90;;;;;;4846787;29;20042;-84
2023/04/22 05:44:29;;;;;;;18.20;9.73;;;9.50;99.90;;;;;;4850049;29;20447;-84
2023/04/22 05:46:56;;;;;;;14.02;10.00;;;9.60;99.90;;;;;;4864799;29;20060;-83
2023/04/22 05:49:23;;;;;;;14.25;10.07;;;9.70;99.90;;;;;;4865052;29;20044;-84
2023/04/22 05:51:50;;;;;;;15.88;9.63;;;9.80;99.90;;;;;;4880183;29;20052;-84
2023/04/22 05:54:16;;;;;;;14.15;9.38;;;9.90;99.90;;;;;;4865042;29;20041;-84
2023/04/22 05:56:43;;;;;;;16.33;10.07;;;10.00;99.90;;;;;;4895413;29;20065;-84
2023/04/22 05:59:10;;;;;;;13.50;9.48;;;10.10;99.90;;;;;;4864616;29;20042;-84
2023/04/22 06:01:37;;;;;;;18.92;10.40;;;10.20;99.90;;;;;;4864381;29;20160;-84
2023/04/22 06:04:08;;;;;;;14.10;9.27;;;10.30;99.90;;;;;;4864433;29;20053;-83
2023/04/22 06:06:35;;;;;;;13.27;9.30;;;10.30;99.90;;;;;;4861959;29;20372;-84
2023/04/22 06:09:02;;;;;;;15.10;9.55;;;10.40;99.90;;;;;;4846682;29;20134;-84
2023/04/22 06:11:29;;;;;;;19.17;10.25;;;10.50;99.90;;;;;;4861435;29;20050;-84
2023/04/22 06:13:55;;;;;;;13.88;9.57;;;10.50;99.90;;;;;;4846575;29;20153;-84
2023/04/22 06:16:22;;;;;;;14.57;9.90;;;10.60;99.90;;;;;;4846255;29;20049;-83
2023/04/22 06:18:49;;;;;;;17.20;9.82;;;10.60;99.90;;;;;;4861262;29;20050;-84
2023/04/22 06:21:15;;;;;;;13.98;9.45;;;10.70;99.90;;;;;;4860960;29;20085;-84
2023/04/22 06:23:42;;;;;;;16.05;9.93;;;10.70;99.90;;;;;;4846457;29;20395;-84
2023/04/22 06:26:09;;;;;;;12.77;9.00;;;10.80;99.90;;;;;;4845942;29;20065;-83
2023/04/22 06:28:36;;;;;;;14.75;10.02;;;10.80;99.90;;;;;;4866132;29;20037;-83
2023/04/22 06:31:02;;;;;;;14.15;9.60;;;10.90;99.90;;;;;;4867501;29;20049;-84
2023/04/22 06:33:29;;;;;;;12.45;9.18;;;10.90;99.90;;;;;;4879664;29;20045;-85
2023/04/22 06:35:56;;;;;;;13.30;9.45;;;11.00;99.90;;;;;;4879312;29;20129;-84
2023/04/22 06:38:22;;;;;;;12.90;9.18;;;11.00;99.90;;;;;;4854434;29;20443;-84
2023/04/22 06:40:49;;;;;;;12.75;8.73;;;11.10;99.90;;;;;;4876011;29;20142;-84
2023/04/22 06:43:16;;;;;;;13.23;9.07;;;11.20;99.90;;;;;;4870339;29;20049;-84
2023/04/22 06:45:42;;;;;;;15.23;9.50;;;11.20;99.90;;;;;;4870425;29;20045;-84
2023/04/22 06:48:09;;;;;;;14.82;9.52;;;11.30;99.90;;;;;;4860794;29;20049;-85
2023/04/22 06:50:36;;;;;;;12.70;8.95;;;11.30;99.90;;;;;;4845006;29;20050;-84
2023/04/22 06:53:02;;;;;;;17.52;9.65;;;11.40;99.90;;;;;;4860626;29;20081;-84
2023/04/22 06:55:29;;;;;;;14.82;9.50;;;11.50;99.90;;;;;;4845451;29;20053;-84
2023/04/22 06:57:56;;;;;;;17.05;9.32;;;11.50;99.90;;;;;;4845720;29;20053;-84
2023/04/22 07:00:24;;;;;;;13.95;8.48;;;11.60;99.90;;;;;;4860295;29;20057;-84
2023/04/22 07:02:51;;;;;;;12.80;9.35;;;11.70;99.90;;;;;;4845933;29;20046;-84
2023/04/22 07:05:19;;;;;;;13.63;9.02;;;11.70;99.90;;;;;;4860454;29;20110;-85
2023/04/22 07:07:46;;;;;;;15.77;8.80;;;11.80;99.90;;;;;;4852579;29;20671;-85
2023/04/22 07:10:13;;;;;;;12.32;9.27;;;11.90;99.90;;;;;;4856610;29;20145;-84
2023/04/22 07:12:40;;;;;;;17.13;9.18;;;11.90;99.90;;;;;;4866724;29;20049;-85
2023/04/22 07:15:07;;;;;;;13.98;8.75;;;12.00;99.90;;;;;;4897209;29;20502;-85
2023/04/22 07:17:34;;;;;;;13.60;9.27;;;12.00;99.90;;;;;;4881868;29;20060;-85
2023/04/22 07:20:01;;;;;;;15.35;9.45;;;12.10;99.90;;;;;;4866625;29;20045;-84
2023/04/22 07:22:27;;;;;;;10.68;8.30;;;12.20;99.90;;;;;;4881780;29;20570;-84
2023/04/22 07:24:55;;;;;;;13.15;9.15;;;12.30;99.90;;;;;;4875282;29;20091;-84
2023/04/22 07:27:21;;;;;;;16.10;8.60;;;12.40;99.90;;;;;;4886671;29;20502;-85
2023/04/22 07:29:48;;;;;;;13.15;7.90;;;12.40;99.90;;;;;;4881822;29;20052;-85
2023/04/22 07:32:15;;;;;;;13.27;8.27;;;12.60;99.90;;;;;;4866514;29;20045;-85
2023/04/22 07:34:41;;;;;;;11.98;8.32;;;12.60;99.90;;;;;;4866426;29;20092;-85
2023/04/22 07:37:08;;;;;;;13.30;7.78;;;12.70;99.90;;;;;;4881841;29;20490;-85
2023/04/22 07:39:35;;;;;;;12.40;8.30;;;12.80;99.90;;;;;;4881373;29;20041;-85
2023/04/22 07:42:02;;;;;;;12.57;7.45;;;13.00;99.90;;;;;;4876716;29;20045;-85
2023/04/22 07:44:28;;;;;;;11.38;7.97;;;13.10;99.90;;;;;;4870662;29;20049;-85
2023/04/22 07:46:55;;;;;;;15.82;8.07;;;13.20;99.90;;;;;;4876452;29;20037;-86
2023/04/22 07:49:22;;;;;;;11.45;8.00;;;13.30;99.90;;;;;;4856823;29;20040;-85
2023/04/22 07:51:50;;;;;;;11.25;8.07;;;13.40;99.90;;;;;;4893116;29;20104;-85
2023/04/22 07:54:16;;;;;;;12.07;7.68;;;13.40;99.90;;;;;;4865322;29;20128;-83
2023/04/22 07:56:43;;;;;;;9.55;7.20;;;13.50;99.90;;;;;;4871719;29;20188;-83
2023/04/22 07:59:10;;;;;;;13.60;7.72;;;13.60;99.90;;;;;;4873559;29;20049;-81
2023/04/22 08:01:36;;;;;;;11.65;7.18;;;13.70;99.90;;;;;;4895430;29;20060;-81
2023/04/22 08:04:03;;;;;;;11.90;7.65;;;13.80;99.90;;;;;;4894565;29;20044;-82
2023/04/22 08:06:30;;;;;;;12.02;7.72;;;13.90;99.90;;;;;;4850153;29;20041;-81
2023/04/22 08:08:57;;;;;;;11.75;7.57;;;14.00;99.90;;;;;;4874392;29;20081;-81
2023/04/22 08:11:24;;;;;;;10.55;7.20;;;14.00;99.90;;;;;;4858654;29;20081;-81
2023/04/22 08:13:50;;;;;;;10.02;7.20;;;14.10;99.90;;;;;;4874210;29;20056;-81
2023/04/22 08:16:17;;;;;;;10.15;6.80;;;14.20;99.90;;;;;;4862238;29;20503;-81
2023/04/22 08:18:44;;;;;;;10.93;7.13;;;14.20;99.90;;;;;;4861996;29;20041;-81
2023/04/22 08:21:11;;;;;;;10.23;6.82;;;14.30;99.90;;;;;;4877226;29;20052;-82
2023/04/22 08:23:38;;;;;;;11.48;7.60;;;14.40;99.90;;;;;;4861938;29;20117;-81
2023/04/22 08:26:04;;;;;;;10.68;6.72;;;14.60;99.90;;;;;;4876787;29;20097;-81
2023/04/22 08:28:31;;;;;;;11.30;6.68;;;14.70;99.90;;;;;;4862131;29;20408;-81
2023/04/22 08:30:58;;;;;;;11.25;6.95;;;14.90;99.90;;;;;;4861775;29;20054;-81
2023/04/22 08:33:24;;;;;;;13.70;6.30;;;15.10;99.90;;;;;;4876948;29;20048;-82
2023/04/22 08:35:51;;;;;;;10.88;6.10;;;15.20;99.90;;;;;;4876601;29;20045;-81
2023/04/22 08:38:18;;;;;;;14.98;7.18;;;15.40;99.90;;;;;;4876363;29;20049;-81
2023/04/22 08:40:45;;;;;;;12.05;6.35;;;15.50;99.90;;;;;;4861505;29;20041;-82
2023/04/22 08:43:12;;;;;;;9.20;6.07;;;15.80;99.90;;;;;;4892222;29;20541;-81
2023/04/22 08:45:39;;;;;;;9.30;5.97;;;15.90;99.90;;;;;;4876427;29;20053;-81
2023/04/22 08:48:08;;;;;;;9.48;5.75;;;16.10;99.90;;;;;;4876450;29;20132;-81
2023/04/22 08:50:38;;;;;;;8.25;5.88;;;16.30;99.90;;;;;;4876225;29;20507;-82
2023/04/22 08:53:05;;;;;;;8.52;5.88;;;16.40;99.90;;;;;;4876606;29;20081;-82
2023/04/22 08:55:33;;;;;;;8.48;5.65;;;16.50;99.90;;;;;;4861263;29;20084;-81
2023/04/22 08:58:02;;;;;;;8.38;5.80;;;16.40;99.90;;;;;;4858334;29;20050;-81
2023/04/22 09:00:31;;;;;;;7.80;5.10;;;16.60;99.90;;;;;;4843260;29;20504;-81
2023/04/22 09:03:04;;;;;;;7.68;5.57;;;16.60;99.90;;;;;;4858124;29;20136;-81
2023/04/22 09:05:36;;;;;;;7.78;5.57;;;16.80;99.90;;;;;;4872997;29;20134;-81
2023/04/22 09:08:03;;;;;;;8.80;5.70;;;16.80;99.90;;;;;;4880226;29;20041;-82
2023/04/22 09:10:30;;;;;;;9.90;5.15;;;16.90;99.90;;;;;;4876320;29;20400;-82
2023/04/22 09:12:57;;;;;;;7.60;5.63;;;17.00;99.90;;;;;;4875932;29;20041;-81
2023/04/22 09:15:25;;;;;;;8.85;5.78;;;17.10;99.90;;;;;;4876159;29;20084;-81
2023/04/22 09:17:51;;;;;;;9.93;6.00;;;17.20;99.90;;;;;;4891327;29;20121;-81
2023/04/22 09:20:18;;;;;;;10.07;5.90;;;17.30;99.90;;;;;;4876134;29;20045;-82
2023/04/22 09:22:47;;;;;;;12.45;5.53;;;17.50;99.90;;;;;;4876125;29;20133;-81
2023/04/22 09:25:21;;;;;;;8.50;5.32;;;17.70;99.90;;;;;;4876443;29;20037;-81
2023/04/22 09:27:50;;;;;;;7.65;5.63;;;17.90;99.90;;;;;;4876542;29;20037;-81
2023/04/22 09:30:22;;;;;;;8.32;5.40;;;17.90;99.90;;;;;;4858052;29;20128;-81
2023/04/22 09:32:53;;;;;;;8.05;5.70;;;18.00;99.90;;;;;;4872805;29;20050;-81
2023/04/22 09:35:27;;;;;;;7.65;5.05;;;18.10;99.90;;;;;;4872972;29;20128;-82
2023/04/22 09:37:54;;;;;;;8.35;5.38;;;18.20;99.90;;;;;;4872718;29;20050;-81
2023/04/22 09:40:22;;;;;;;10.85;5.75;;;18.30;99.90;;;;;;4844426;29;20137;-82
2023/04/22 09:42:50;;;;;;;10.80;5.55;;;18.30;99.90;;;;;;4857619;29;20049;-82
2023/04/22 09:45:37;;;;;;;8.85;5.55;;;18.40;99.90;;;;;;4857931;29;20049;-81
2023/04/22 09:48:10;;;;;;;10.88;5.50;;;18.50;99.90;;;;;;4857872;29;20042;-81
2023/04/22 09:50:39;;;;;;;6.97;4.47;;;18.60;99.90;;;;;;4888833;29;20045;-81
2023/04/22 09:53:08;;;;;;;8.75;5.00;;;18.80;99.90;;;;;;4872879;29;20128;-81
2023/04/22 09:55:41;;;;;;;8.52;5.13;;;18.90;99.90;;;;;;4857614;29;20070;-82
2023/04/22 09:58:13;;;;;;;8.73;4.75;;;19.00;99.90;;;;;;4888071;29;20799;-82
2023/04/22 10:00:43;;;;;;;6.57;3.67;;;19.10;99.90;;;;;;4866320;29;20066;-82
2023/04/22 10:03:10;;;;;;;7.30;3.58;;;19.30;99.90;;;;;;4857454;29;20137;-81
2023/04/22 10:05:37;;;;;;;9.65;4.38;;;19.40;99.90;;;;;;4872575;29;20559;-79
2023/04/22 10:08:05;;;;;;;8.75;4.40;;;19.50;99.90;;;;;;4857404;29;20128;-79
2023/04/22 10:10:32;;;;;;;7.35;4.65;;;19.60;99.90;;;;;;4845553;29;20048;-78
2023/04/22 10:13:01;;;;;;;7.57;4.07;;;19.60;99.90;;;;;;4875848;29;20041;-79
2023/04/22 10:15:39;;;;;;;5.78;3.95;;;19.60;99.90;;;;;;4875797;29;20487;-79
2023/04/22 10:18:10;;;;;;;6.75;3.60;;;19.80;99.90;;;;;;4875843;29;20064;-78
2023/04/22 10:20:40;;;;;;;6.35;3.53;;;19.90;99.90;;;;;;4875600;29;20403;-79
2023/04/22 10:23:14;;;;;;;5.68;3.53;;;19.90;99.90;;;;;;4875905;29;20414;-78
2023/04/22 10:25:41;;;;;;;8.48;3.60;;;20.00;99.90;;;;;;4891657;29;20086;-79
2023/04/22 10:28:14;;;;;;;5.15;3.22;;;20.10;99.90;;;;;;4863956;29;20523;-79
2023/04/22 10:30:41;;;;;;;6.00;3.42;;;20.00;99.90;;;;;;4894585;29;20072;-79
2023/04/22 10:33:20;;;;;;;6.15;3.45;;;20.10;99.90;;;;;;4879590;29;20060;-79
2023/04/22 10:36:16;;;;;;;7.70;3.85;;;20.20;99.90;;;;;;4894195;29;20057;-78
2023/04/22 10:38:49;;;;;;;5.15;2.83;;;20.30;99.90;;;;;;4894434;29;20085;-78
2023/04/22 10:41:21;;;;;;;7.97;3.33;;;20.30;99.90;;;;;;4878629;29;20137;-79
2023/04/22 10:43:54;;;;;;;5.20;3.05;;;20.40;99.90;;;;;;4894000;29;20120;-79
2023/04/22 10:46:36;;;;;;;5.00;3.53;;;20.40;99.90;;;;;;4878768;29;20479;-79
2023/04/22 10:49:08;;;;;;;6.78;3.78;;;20.60;99.90;;;;;;4878877;29;20045;-79
2023/04/22 10:51:45;;;;;;;7.82;3.53;;;20.60;99.90;;;;;;4878870;29;20045;-79
2023/04/22 10:57:10;;;;;;;7.55;3.40;;;20.60;99.90;;;;;;4893764;29;20054;-79
2023/04/22 10:59:47;;;;;;;6.13;3.42;;;20.70;99.90;;;;;;4878427;29;20462;-79
2023/04/22 11:02:15;;;;;;;7.80;3.40;;;20.70;99.90;;;;;;4877723;29;20539;-79
2023/04/22 11:04:42;;;;;;;5.32;3.28;;;20.60;99.90;;;;;;4878589;29;20113;-79
2023/04/22 11:07:29;;;;;;;6.03;3.40;;;20.70;99.90;;;;;;4878218;29;20045;-79
2023/04/22 11:10:06;;;;;;;5.03;2.80;;;20.80;99.90;;;;;;4893427;29;20435;-79
2023/04/22 11:12:38;;;;;;;5.93;3.30;;;21.00;99.90;;;;;;4893306;29;20053;-79
2023/04/22 11:15:05;;;;;;;5.97;3.60;;;21.10;99.90;;;;;;4878180;29;20102;-78
2023/04/22 11:17:33;;;;;;;5.03;3.40;;;21.00;99.90;;;;;;4893597;29;20081;-79
2023/04/22 11:20:01;;;;;;;5.75;3.45;;;21.00;99.90;;;;;;4893314;29;20053;-79
2023/04/22 11:22:28;;;;;;;7.65;3.70;;;21.00;99.90;;;;;;4861190;29;20404;-79
2023/04/22 11:24:55;;;;;;;4.82;3.30;;;21.00;99.90;;;;;;4877648;29;20046;-78
2023/04/22 11:27:25;;;;;;;5.10;3.30;;;21.10;99.90;;;;;;4893426;29;20568;-78
2023/04/22 11:30:10;;;;;;;6.07;2.97;;;21.10;99.90;;;;;;4878259;29;20093;-79
2023/04/22 11:32:42;;;;;;;6.30;3.25;;;21.20;99.90;;;;;;4893495;29;20048;-79
2023/04/22 11:35:15;;;;;;;5.03;3.28;;;21.20;99.90;;;;;;4877751;29;20088;-78
2023/04/22 11:37:50;;;;;;;5.45;3.03;;;21.30;99.90;;;;;;4877836;29;20105;-81
2023/04/22 11:40:24;;;;;;;6.72;3.65;;;21.40;99.90;;;;;;4878515;29;20110;-81
2023/04/22 11:42:50;;;;;;;5.50;3.35;;;21.40;99.90;;;;;;4878027;29;20049;-80
2023/04/22 11:45:17;;;;;;;6.28;4.03;;;21.40;99.90;;;;;;4878032;29;20124;-81
2023/04/22 11:47:45;;;;;;;6.55;3.10;;;21.40;99.90;;;;;;4877577;29;20038;-81
2023/04/22 11:50:13;;;;;;;6.55;3.30;;;21.50;99.90;;;;;;4877479;29;20125;-81
2023/04/22 11:52:45;;;;;;;6.57;2.75;;;21.70;99.70;;;;;;4892864;29;20059;-81
2023/04/22 11:55:14;;;;;;;4.78;2.58;;;21.70;99.80;;;;;;4892539;29;20061;-81
2023/04/22 11:57:42;;;;;;;4.13;2.63;;;21.80;99.90;;;;;;4877638;29;20132;-81
2023/04/22 12:00:12;;;;;;;7.60;2.75;;;21.80;98.50;;;;;;4892487;29;20475;-81
2023/04/22 12:02:40;;;;;;;6.55;2.72;;;21.90;99.40;;;;;;4876991;29;20045;-81
2023/04/22 12:05:11;;;;;;;6.25;3.17;;;21.90;99.10;;;;;;4892880;29;20045;-82
2023/04/22 12:07:38;;;;;;;6.35;2.72;;;22.00;99.30;;;;;;4877155;29;20562;-81
2023/04/22 12:10:06;;;;;;;5.05;3.00;;;22.10;99.40;;;;;;4862149;29;20509;-81
2023/04/22 12:12:35;;;;;;;6.03;3.22;;;22.10;99.30;;;;;;4877617;29;20049;-81
2023/04/22 12:15:10;;;;;;;9.43;3.65;;;22.20;98.70;;;;;;4862166;29;20049;-81
2023/04/22 12:17:37;;;;;;;6.10;3.33;;;22.10;97.90;;;;;;4877043;29;20519;-80
2023/04/22 12:20:05;;;;;;;5.68;3.65;;;22.10;98.20;;;;;;4891722;29;20451;-81
2023/04/22 12:22:32;;;;;;;7.85;3.88;;;22.00;98.60;;;;;;4877222;29;20185;-81
2023/04/22 12:25:00;;;;;;;7.95;3.65;;;22.10;98.80;;;;;;4861845;29;20056;-80
2023/04/22 12:27:26;;;;;;;6.85;3.67;;;22.10;98.70;;;;;;4876954;29;20056;-81
2023/04/22 12:29:55;;;;;;;7.95;3.55;;;22.00;98.70;;;;;;4892107;29;20046;-81
2023/04/22 12:32:24;;;;;;;8.82;3.97;;;22.10;98.60;;;;;;4891997;29;20045;-81
2023/04/22 12:34:51;;;;;;;6.00;3.65;;;22.00;98.20;;;;;;4876597;29;20534;-81
2023/04/22 12:37:18;;;;;;;7.90;3.70;;;21.90;98.80;;;;;;4876774;29;20173;-81
2023/04/22 12:39:45;;;;;;;7.65;3.67;;;21.90;98.70;;;;;;4858393;29;20125;-81
2023/04/22 12:42:12;;;;;;;5.50;3.63;;;22.00;98.60;;;;;;4858190;29;20155;-81
2023/04/22 12:44:38;;;;;;;6.25;3.58;;;22.00;98.70;;;;;;4858766;29;20468;-81
2023/04/22 12:47:05;;;;;;;8.85;3.53;;;22.00;98.80;;;;;;4873590;29;20038;-81
2023/04/22 12:49:32;;;;;;;6.45;3.90;;;22.00;99.10;;;;;;4876145;29;20045;-81